createdAt,value
2023-04-25T00:00:00.973Z,7.73
2023-04-25T00:01:04.733Z,6.53
2023-04-25T00:02:06.292Z,8.17
2023-04-25T00:03:10.210Z,7.90
2023-04-25T00:04:12.869Z,6.97
2023-04-25T00:05:16.472Z,6.80
2023-04-25T00:06:18.824Z,9.37
2023-04-25T00:07:20.463Z,9.50
2023-04-25T00:08:22.051Z,7.57
2023-04-25T00:09:23.614Z,7.17
2023-04-25T00:10:25.324Z,6.17
2023-04-25T00:11:26.933Z,6.60
2023-04-25T00:12:29.703Z,7.47
2023-04-25T00:13:31.274Z,6.77
2023-04-25T00:14:35.395Z,6.73
2023-04-25T00:15:38.726Z,7.20
2023-04-25T00:16:42.292Z,7.70
2023-04-25T00:17:44.052Z,8.90
2023-04-25T00:18:47.700Z,6.20
2023-04-25T00:19:49.381Z,6.30
2023-04-25T00:20:51.004Z,6.30
2023-04-25T00:21:52.669Z,5.97
2023-04-25T00:22:54.501Z,8.10
2023-04-25T00:23:56.932Z,6.13
2023-04-25T00:25:01.123Z,7.37
2023-04-25T00:26:03.410Z,8.13
2023-04-25T00:27:04.960Z,6.90
2023-04-25T00:28:06.572Z,6.93
2023-04-25T00:29:08.074Z,8.03
2023-04-25T00:30:10.121Z,8.23
2023-04-25T00:31:11.711Z,7.00
2023-04-25T00:32:13.311Z,6.83
2023-04-25T00:33:14.895Z,7.30
2023-04-25T00:34:16.476Z,8.17
2023-04-25T00:35:18.052Z,9.20
2023-04-25T00:36:19.715Z,6.53
2023-04-25T00:37:21.295Z,8.17
2023-04-25T00:38:22.965Z,7.50
2023-04-25T00:39:24.511Z,8.20
2023-04-25T00:40:26.468Z,9.67
2023-04-25T00:41:28.268Z,8.57
2023-04-25T00:42:30.908Z,9.60
2023-04-25T00:43:33.524Z,10.67
2023-04-25T00:44:36.494Z,8.33
2023-04-25T00:45:40.815Z,7.60
2023-04-25T00:46:43.228Z,8.37
2023-04-25T00:47:46.537Z,8.43
2023-04-25T00:48:48.214Z,6.30
2023-04-25T00:49:49.759Z,5.93
2023-04-25T00:50:56.204Z,6.37
2023-04-25T00:51:57.881Z,6.13
2023-04-25T00:52:59.554Z,5.70
2023-04-25T00:54:02.506Z,5.13
2023-04-25T00:55:04.647Z,4.47
2023-04-25T00:56:06.972Z,7.23
2023-04-25T00:57:08.645Z,7.67
2023-04-25T00:58:10.250Z,5.83
2023-04-25T00:59:12.107Z,5.00
2023-04-25T01:00:15.467Z,4.30
2023-04-25T01:01:17.601Z,6.33
2023-04-25T01:02:20.788Z,5.67
2023-04-25T01:03:22.896Z,3.90
2023-04-25T01:04:24.806Z,3.80
2023-04-25T01:05:26.480Z,4.70
2023-04-25T01:06:28.556Z,3.93
2023-04-25T01:07:30.386Z,4.10
2023-04-25T01:08:32.429Z,4.03
2023-04-25T01:09:34.326Z,6.93
2023-04-25T01:10:36.237Z,4.00
2023-04-25T01:11:37.844Z,5.07
2023-04-25T01:12:39.861Z,4.47
2023-04-25T01:13:41.460Z,5.37
2023-04-25T01:14:42.999Z,4.13
2023-04-25T01:15:44.945Z,4.47
2023-04-25T01:16:46.566Z,4.10
2023-04-25T01:17:50.386Z,6.37
2023-04-25T01:18:52.418Z,4.30
2023-04-25T01:19:54.333Z,4.30
2023-04-25T01:20:56.687Z,4.30
2023-04-25T01:21:58.413Z,5.20
2023-04-25T01:23:00.923Z,4.63
2023-04-25T01:24:03.254Z,4.20
2023-04-25T01:25:05.522Z,4.40
2023-04-25T01:26:11.558Z,4.90
2023-04-25T01:27:13.180Z,6.53
2023-04-25T01:28:14.960Z,5.50
2023-04-25T01:29:18.948Z,5.73
2023-04-25T01:30:20.813Z,4.57
2023-04-25T01:31:22.630Z,3.83
2023-04-25T01:32:24.839Z,4.27
2023-04-25T01:33:26.480Z,3.97
2023-04-25T01:34:28.162Z,5.53
2023-04-25T01:35:29.891Z,4.43
2023-04-25T01:36:32.317Z,3.97
2023-04-25T01:37:33.921Z,5.07
2023-04-25T01:38:36.312Z,4.03
2023-04-25T01:39:37.875Z,4.23
2023-04-25T01:40:41.477Z,5.23
2023-04-25T01:41:44.082Z,4.10
2023-04-25T01:42:46.500Z,6.23
2023-04-25T01:43:48.706Z,5.17
2023-04-25T01:44:50.456Z,3.60
2023-04-25T01:45:52.596Z,3.97
2023-04-25T01:46:54.980Z,3.87
2023-04-25T01:48:00.301Z,3.90
2023-04-25T01:49:02.534Z,3.87
2023-04-25T01:50:05.734Z,3.50
2023-04-25T01:51:07.480Z,5.20
2023-04-25T01:52:09.099Z,4.00
2023-04-25T01:53:13.046Z,3.90
2023-04-25T01:54:14.783Z,4.57
2023-04-25T01:55:16.566Z,4.07
2023-04-25T01:56:19.455Z,3.63
2023-04-25T01:57:21.270Z,4.00
2023-04-25T01:58:22.841Z,4.00
2023-04-25T01:59:24.502Z,3.77
2023-04-25T02:00:26.211Z,4.70
2023-04-25T02:01:27.800Z,4.67
2023-04-25T02:02:29.857Z,4.87
2023-04-25T02:03:33.265Z,4.80
2023-04-25T02:04:35.068Z,4.73
2023-04-25T02:05:37.918Z,5.27
2023-04-25T02:06:39.458Z,3.67
2023-04-25T02:07:41.027Z,4.30
2023-04-25T02:08:42.542Z,3.47
2023-04-25T02:09:44.120Z,3.10
2023-04-25T02:10:45.705Z,4.47
2023-04-25T02:11:47.249Z,3.23
2023-04-25T02:12:48.872Z,2.50
2023-04-25T02:13:50.809Z,4.53
2023-04-25T02:14:52.589Z,3.40
2023-04-25T02:15:54.217Z,4.70
2023-04-25T02:16:55.935Z,2.80
2023-04-25T02:17:58.926Z,5.43
2023-04-25T02:19:01.192Z,2.57
2023-04-25T02:20:02.968Z,3.07
2023-04-25T02:21:04.643Z,2.80
2023-04-25T02:22:06.246Z,3.23
2023-04-25T02:23:07.797Z,4.37
2023-04-25T02:24:09.834Z,3.07
2023-04-25T02:25:12.602Z,3.43
2023-04-25T02:26:14.429Z,2.97
2023-04-25T02:27:16.258Z,3.07
2023-04-25T02:28:17.856Z,2.93
2023-04-25T02:29:19.388Z,3.63
2023-04-25T02:30:21.231Z,2.77
2023-04-25T02:31:22.826Z,3.37
2023-04-25T02:32:24.515Z,3.50
2023-04-25T02:33:26.054Z,3.70
2023-04-25T02:34:27.620Z,4.77
2023-04-25T02:35:29.205Z,3.47
2023-04-25T02:36:33.310Z,3.33
2023-04-25T02:37:36.640Z,3.07
2023-04-25T02:38:38.348Z,4.97
2023-04-25T02:39:39.964Z,2.87
2023-04-25T02:40:41.768Z,3.03
2023-04-25T02:41:43.386Z,3.70
2023-04-25T02:42:47.047Z,3.40
2023-04-25T02:43:49.044Z,4.50
2023-04-25T02:44:50.896Z,3.60
2023-04-25T02:45:52.573Z,4.07
2023-04-25T02:46:54.566Z,3.73
2023-04-25T02:47:56.227Z,4.17
2023-04-25T02:48:57.772Z,5.43
2023-04-25T02:49:59.333Z,3.70
2023-04-25T02:51:00.938Z,5.43
2023-04-25T02:52:02.578Z,3.67
2023-04-25T02:53:04.097Z,3.67
2023-04-25T02:54:06.071Z,4.03
2023-04-25T02:55:08.025Z,4.10
2023-04-25T02:56:09.630Z,4.53
2023-04-25T02:57:11.175Z,4.97
2023-04-25T02:58:12.724Z,4.30
2023-04-25T02:59:14.282Z,4.70
2023-04-25T03:00:15.983Z,6.27
2023-04-25T03:01:17.669Z,5.60
2023-04-25T03:02:19.305Z,5.93
2023-04-25T03:03:22.946Z,4.07
2023-04-25T03:04:27.973Z,7.37
2023-04-25T03:05:29.509Z,4.10
2023-04-25T03:06:31.945Z,4.20
2023-04-25T03:07:33.541Z,5.40
2023-04-25T03:08:35.453Z,6.73
2023-04-25T03:09:37.054Z,6.00
2023-04-25T03:10:39.384Z,4.93
2023-04-25T03:11:40.984Z,7.00
2023-04-25T03:12:42.527Z,5.17
2023-04-25T03:13:44.080Z,4.47
2023-04-25T03:14:45.649Z,6.37
2023-04-25T03:15:47.204Z,4.97
2023-04-25T03:16:48.795Z,4.93
2023-04-25T03:17:50.419Z,5.67
2023-04-25T03:18:51.983Z,6.30
2023-04-25T03:19:53.476Z,4.83
2023-04-25T03:20:55.347Z,6.93
2023-04-25T03:21:56.944Z,7.43
2023-04-25T03:22:58.517Z,5.03
2023-04-25T03:24:01.513Z,5.63
2023-04-25T03:25:03.754Z,6.77
2023-04-25T03:26:05.328Z,5.90
2023-04-25T03:27:07.178Z,6.80
2023-04-25T03:28:08.712Z,6.50
2023-04-25T03:29:10.405Z,7.30
2023-04-25T03:30:12.576Z,7.50
2023-04-25T03:31:14.109Z,5.70
2023-04-25T03:32:15.908Z,7.07
2023-04-25T03:33:17.515Z,6.00
2023-04-25T03:34:19.089Z,6.53
2023-04-25T03:35:21.352Z,6.63
2023-04-25T03:36:22.910Z,7.93
2023-04-25T03:37:24.557Z,5.57
2023-04-25T03:38:26.300Z,5.63
2023-04-25T03:39:27.941Z,5.80
2023-04-25T03:40:29.534Z,6.77
2023-04-25T03:41:31.139Z,7.80
2023-04-25T03:42:32.707Z,5.80
2023-04-25T03:43:34.503Z,6.30
2023-04-25T03:44:36.037Z,5.37
2023-04-25T03:45:37.599Z,6.10
2023-04-25T03:46:39.148Z,6.30
2023-04-25T03:47:40.791Z,5.87
2023-04-25T03:48:42.406Z,5.63
2023-04-25T03:49:44.068Z,6.63
2023-04-25T03:50:45.792Z,5.93
2023-04-25T03:51:47.328Z,5.53
2023-04-25T03:52:48.894Z,5.83
2023-04-25T03:53:50.767Z,5.30
2023-04-25T03:54:52.504Z,5.27
2023-04-25T03:55:54.052Z,5.10
2023-04-25T03:56:55.661Z,8.73
2023-04-25T03:57:59.011Z,6.60
2023-04-25T03:59:00.573Z,5.97
2023-04-25T04:00:02.448Z,5.53
2023-04-25T04:01:08.307Z,6.47
2023-04-25T04:02:10.014Z,6.00
2023-04-25T04:03:12.300Z,6.47
2023-04-25T04:04:14.288Z,6.00
2023-04-25T04:05:16.239Z,6.90
2023-04-25T04:06:17.970Z,7.37
2023-04-25T04:07:19.585Z,6.93
2023-04-25T04:08:21.127Z,7.13
2023-04-25T04:09:22.975Z,5.70
2023-04-25T04:10:24.602Z,6.20
2023-04-25T04:11:26.412Z,6.30
2023-04-25T04:12:28.033Z,5.57
2023-04-25T04:13:30.081Z,5.80
2023-04-25T04:14:31.644Z,5.67
2023-04-25T04:15:34.043Z,5.70
2023-04-25T04:16:35.940Z,5.40
2023-04-25T04:17:37.774Z,6.23
2023-04-25T04:18:39.485Z,6.60
2023-04-25T04:19:41.145Z,6.03
2023-04-25T04:20:42.684Z,5.50
2023-04-25T04:21:44.209Z,7.30
2023-04-25T04:22:45.754Z,6.57
2023-04-25T04:23:47.780Z,6.50
2023-04-25T04:24:51.009Z,6.97
2023-04-25T04:25:53.217Z,7.43
2023-04-25T04:26:54.771Z,6.30
2023-04-25T04:27:56.503Z,7.00
2023-04-25T04:29:00.340Z,6.30
2023-04-25T04:30:02.784Z,8.03
2023-04-25T04:31:05.021Z,6.70
2023-04-25T04:32:06.749Z,7.60
2023-04-25T04:33:08.548Z,7.37
2023-04-25T04:34:10.584Z,6.87
2023-04-25T04:35:12.163Z,8.60
2023-04-25T04:36:14.029Z,6.37
2023-04-25T04:37:15.840Z,6.80
2023-04-25T04:38:17.440Z,6.50
2023-04-25T04:39:19.022Z,6.57
2023-04-25T04:40:21.546Z,6.57
2023-04-25T04:41:23.486Z,7.77
2023-04-25T04:42:25.277Z,8.77
2023-04-25T04:43:27.009Z,9.73
2023-04-25T04:44:29.579Z,9.53
2023-04-25T04:45:31.231Z,11.00
2023-04-25T04:46:32.980Z,6.90
2023-04-25T04:47:35.000Z,9.33
2023-04-25T04:48:36.676Z,9.23
2023-04-25T04:49:38.219Z,7.30
2023-04-25T04:50:39.933Z,8.17
2023-04-25T04:51:48.012Z,6.73
2023-04-25T04:52:50.141Z,8.43
2023-04-25T04:53:52.118Z,6.27
2023-04-25T04:54:55.165Z,6.63
2023-04-25T04:55:57.646Z,9.73
2023-04-25T04:56:59.967Z,7.90
2023-04-25T04:58:04.704Z,6.77
2023-04-25T04:59:07.861Z,6.57
2023-04-25T05:00:12.196Z,7.43
2023-04-25T05:01:14.552Z,6.90
2023-04-25T05:02:16.406Z,7.27
2023-04-25T05:03:18.096Z,7.77
2023-04-25T05:04:19.859Z,9.73
2023-04-25T05:05:21.621Z,15.17
2023-04-25T05:06:23.182Z,11.20
2023-04-25T05:07:24.732Z,9.37
2023-04-25T05:08:26.407Z,7.87
2023-04-25T05:09:28.429Z,8.83
2023-04-25T05:10:33.134Z,8.07
2023-04-25T05:11:34.713Z,11.33
2023-04-25T05:12:37.349Z,8.70
2023-04-25T05:13:39.049Z,10.80
2023-04-25T05:14:40.668Z,10.03
2023-04-25T05:15:42.222Z,11.60
2023-04-25T05:16:44.081Z,13.40
2023-04-25T05:17:45.836Z,9.60
2023-04-25T05:18:49.377Z,8.17
2023-04-25T05:19:50.965Z,5.93
2023-04-25T05:20:52.796Z,10.03
2023-04-25T05:21:54.402Z,13.30
2023-04-25T05:22:56.109Z,5.37
2023-04-25T05:23:57.808Z,8.67
2023-04-25T05:24:59.415Z,5.87
2023-04-25T05:26:01.139Z,11.77
2023-04-25T05:27:03.354Z,8.50
2023-04-25T05:28:06.022Z,6.53
2023-04-25T05:29:07.572Z,6.77
2023-04-25T05:30:10.588Z,15.73
2023-04-25T05:31:12.210Z,11.37
2023-04-25T05:32:13.870Z,9.43
2023-04-25T05:33:16.328Z,7.03
2023-04-25T05:34:17.941Z,7.53
2023-04-25T05:35:19.625Z,8.27
2023-04-25T05:36:21.234Z,10.87
2023-04-25T05:37:22.808Z,8.10
2023-04-25T05:38:24.350Z,9.07
2023-04-25T05:39:25.890Z,4.70
2023-04-25T05:40:27.529Z,6.00
2023-04-25T05:41:29.075Z,4.13
2023-04-25T05:42:30.624Z,5.67
2023-04-25T05:43:32.195Z,6.83
2023-04-25T05:44:33.772Z,6.13
2023-04-25T05:45:35.494Z,13.13
2023-04-25T05:46:37.311Z,9.07
2023-04-25T05:47:38.883Z,6.90
2023-04-25T05:48:40.756Z,4.67
2023-04-25T05:49:42.315Z,4.57
2023-04-25T05:50:44.221Z,4.37
2023-04-25T05:51:45.793Z,5.00
2023-04-25T05:52:47.330Z,5.00
2023-04-25T05:53:49.113Z,8.00
2023-04-25T05:54:50.829Z,5.83
2023-04-25T05:55:52.348Z,6.30
2023-04-25T05:56:54.261Z,6.87
2023-04-25T05:57:55.805Z,5.00
2023-04-25T05:58:57.404Z,4.63
2023-04-25T05:59:59.012Z,4.47
2023-04-25T06:01:00.589Z,5.03
2023-04-25T06:02:02.313Z,4.53
2023-04-25T06:03:04.625Z,6.70
2023-04-25T06:04:06.510Z,7.37
2023-04-25T06:05:09.292Z,6.70
2023-04-25T06:06:11.129Z,4.60
2023-04-25T06:07:12.742Z,4.07
2023-04-25T06:08:14.255Z,4.77
2023-04-25T06:09:15.769Z,5.43
2023-04-25T06:10:17.273Z,4.93
2023-04-25T06:11:18.864Z,4.60
2023-04-25T06:12:20.745Z,5.83
2023-04-25T06:13:22.298Z,6.90
2023-04-25T06:14:23.916Z,10.00
2023-04-25T06:15:28.637Z,12.80
2023-04-25T06:16:30.622Z,12.60
2023-04-25T06:17:32.221Z,5.17
2023-04-25T06:18:34.307Z,8.33
2023-04-25T06:19:36.924Z,5.17
2023-04-25T06:20:38.460Z,5.67
2023-04-25T06:21:39.988Z,8.03
2023-04-25T06:22:41.624Z,7.57
2023-04-25T06:23:43.190Z,8.20
2023-04-25T06:24:44.804Z,6.67
2023-04-25T06:25:46.603Z,8.73
2023-04-25T06:26:48.596Z,8.60
2023-04-25T06:27:50.291Z,10.23
2023-04-25T06:28:51.822Z,6.93
2023-04-25T06:29:53.746Z,6.90
2023-04-25T06:30:55.313Z,5.63
2023-04-25T06:31:58.097Z,5.17
2023-04-25T06:32:59.684Z,6.23
2023-04-25T06:34:01.456Z,6.23
2023-04-25T06:35:04.335Z,5.23
2023-04-25T06:36:06.102Z,7.33
2023-04-25T06:37:07.636Z,5.97
2023-04-25T06:38:10.042Z,8.07
2023-04-25T06:39:12.088Z,4.00
2023-04-25T06:40:13.999Z,6.03
2023-04-25T06:41:15.605Z,5.43
2023-04-25T06:42:17.187Z,5.97
2023-04-25T06:43:18.767Z,4.70
2023-04-25T06:44:20.295Z,4.57
2023-04-25T06:45:21.895Z,4.53
2023-04-25T06:46:23.502Z,5.00
2023-04-25T06:47:25.357Z,4.90
2023-04-25T06:48:28.247Z,4.73
2023-04-25T06:49:29.828Z,7.97
2023-04-25T06:50:31.727Z,11.37
2023-04-25T06:51:33.319Z,7.23
2023-04-25T06:52:34.876Z,6.90
2023-04-25T06:53:36.559Z,10.27
2023-04-25T06:54:38.138Z,7.80
2023-04-25T06:55:39.785Z,6.33
2023-04-25T06:56:41.550Z,17.60
2023-04-25T06:57:43.081Z,5.63
2023-04-25T06:58:45.010Z,11.50
2023-04-25T06:59:46.890Z,9.07
2023-04-25T07:00:48.492Z,11.10
2023-04-25T07:01:50.049Z,6.07
2023-04-25T07:02:52.220Z,5.77
2023-04-25T07:03:53.971Z,10.83
2023-04-25T07:04:57.275Z,7.97
2023-04-25T07:05:58.914Z,9.83
2023-04-25T07:07:02.001Z,6.13
2023-04-25T07:08:04.117Z,5.40
2023-04-25T07:09:06.449Z,7.63
2023-04-25T07:10:08.171Z,8.23
2023-04-25T07:11:10.054Z,6.60
2023-04-25T07:12:11.668Z,7.13
2023-04-25T07:13:13.252Z,4.60
2023-04-25T07:14:14.809Z,4.73
2023-04-25T07:15:16.353Z,7.20
2023-04-25T07:16:17.878Z,5.10
2023-04-25T07:17:19.463Z,5.77
2023-04-25T07:18:21.060Z,3.87
2023-04-25T07:19:22.637Z,3.70
2023-04-25T07:20:24.201Z,4.10
2023-04-25T07:21:26.454Z,3.35
2023-04-25T07:22:28.334Z,2.53
2023-04-25T07:23:29.911Z,2.72
2023-04-25T07:24:31.452Z,3.15
2023-04-25T07:25:33.052Z,4.60
2023-04-25T07:26:34.596Z,3.50
2023-04-25T07:27:36.205Z,5.18
2023-04-25T07:28:37.750Z,2.45
2023-04-25T07:29:39.370Z,2.63
2023-04-25T07:30:40.894Z,3.47
2023-04-25T07:31:42.709Z,4.05
2023-04-25T07:32:44.324Z,2.65
2023-04-25T07:33:46.822Z,2.38
2023-04-25T07:34:48.481Z,3.42
2023-04-25T07:35:50.167Z,3.92
2023-04-25T07:36:51.779Z,2.47
2023-04-25T07:37:53.310Z,1.88
2023-04-25T07:38:54.861Z,3.88
2023-04-25T07:39:56.428Z,2.25
2023-04-25T07:40:57.958Z,1.50
2023-04-25T07:41:59.591Z,2.10
2023-04-25T07:43:01.168Z,7.40
2023-04-25T07:44:02.693Z,3.50
2023-04-25T07:45:04.476Z,1.83
2023-04-25T07:46:06.162Z,2.67
2023-04-25T07:47:08.549Z,2.92
2023-04-25T07:48:10.300Z,1.55
2023-04-25T07:49:11.909Z,1.58
2023-04-25T07:50:13.530Z,2.38
2023-04-25T07:51:15.114Z,2.78
2023-04-25T07:52:16.803Z,2.25
2023-04-25T07:53:19.283Z,3.30
2023-04-25T07:54:21.083Z,3.22
2023-04-25T07:55:22.870Z,4.70
2023-04-25T07:56:24.418Z,2.42
2023-04-25T07:57:26.233Z,1.70
2023-04-25T07:58:27.789Z,1.88
2023-04-25T07:59:30.309Z,2.88
2023-04-25T08:00:32.379Z,1.67
2023-04-25T08:01:35.148Z,1.65
2023-04-25T08:02:37.512Z,7.15
2023-04-25T08:03:39.361Z,3.75
2023-04-25T08:04:41.723Z,2.95
2023-04-25T08:05:43.723Z,1.70
2023-04-25T08:06:46.549Z,1.63
2023-04-25T08:07:48.218Z,3.92
2023-04-25T08:08:49.929Z,2.78
2023-04-25T08:09:51.656Z,2.72
2023-04-25T08:10:53.530Z,1.70
2023-04-25T08:11:55.124Z,1.52
2023-04-25T08:12:56.729Z,1.60
2023-04-25T08:13:58.307Z,2.60
2023-04-25T08:14:59.835Z,2.83
2023-04-25T08:16:01.521Z,2.83
2023-04-25T08:17:06.763Z,2.13
2023-04-25T08:18:08.541Z,2.83
2023-04-25T08:19:11.988Z,1.73
2023-04-25T08:20:13.827Z,2.90
2023-04-25T08:21:16.376Z,5.82
2023-04-25T08:22:17.917Z,2.10
2023-04-25T08:23:19.463Z,4.40
2023-04-25T08:24:20.990Z,1.17
2023-04-25T08:25:22.514Z,2.35
2023-04-25T08:26:24.097Z,4.22
2023-04-25T08:27:25.747Z,1.52
2023-04-25T08:28:27.295Z,2.08
2023-04-25T08:29:29.616Z,2.75
2023-04-25T08:30:31.269Z,1.33
2023-04-25T08:31:32.888Z,4.18
2023-04-25T08:32:34.894Z,3.83
2023-04-25T08:33:36.798Z,2.08
2023-04-25T08:34:40.491Z,1.15
2023-04-25T08:35:42.072Z,2.95
2023-04-25T08:36:43.644Z,3.25
2023-04-25T08:37:45.221Z,5.72
2023-04-25T08:38:46.843Z,1.52
2023-04-25T08:39:53.448Z,4.65
2023-04-25T08:40:56.506Z,3.53
2023-04-25T08:41:58.181Z,1.83
2023-04-25T08:43:01.661Z,3.30
2023-04-25T08:44:04.453Z,1.30
2023-04-25T08:45:07.323Z,3.85
2023-04-25T08:46:11.268Z,1.13
2023-04-25T08:47:13.435Z,2.15
2023-04-25T08:48:18.101Z,1.83
2023-04-25T08:49:20.155Z,2.03
2023-04-25T08:50:23.846Z,2.38
2023-04-25T08:51:29.008Z,2.67
2023-04-25T08:52:37.414Z,1.63
2023-04-25T08:53:43.774Z,1.52
2023-04-25T08:54:50.036Z,1.10
2023-04-25T08:55:53.742Z,2.53
2023-04-25T08:56:58.511Z,1.77
2023-04-25T08:58:01.781Z,4.72
2023-04-25T08:59:03.915Z,4.50
2023-04-25T09:00:06.430Z,7.97
2023-04-25T09:01:08.166Z,2.30
2023-04-25T09:02:11.210Z,2.80
2023-04-25T09:03:13.348Z,1.98
2023-04-25T09:04:16.210Z,3.90
2023-04-25T09:05:20.196Z,5.28
2023-04-25T09:06:24.593Z,1.67
2023-04-25T09:07:26.836Z,3.30
2023-04-25T09:08:28.470Z,7.15
2023-04-25T09:09:30.610Z,1.08
2023-04-25T09:11:38.881Z,1.65
2023-04-25T09:12:40.526Z,1.00
2023-04-25T09:13:42.464Z,4.63
2023-04-25T09:14:44.847Z,1.98
2023-04-25T09:15:54.585Z,2.25
2023-04-25T09:17:00.599Z,2.70
2023-04-25T09:18:02.603Z,1.15
2023-04-25T09:19:04.212Z,1.27
2023-04-25T09:20:11.540Z,1.52
2023-04-25T09:21:14.989Z,1.20
2023-04-25T09:22:19.564Z,1.45
2023-04-25T09:23:24.777Z,1.48
2023-04-25T09:24:33.241Z,1.80
2023-04-25T09:25:39.805Z,0.88
2023-04-25T09:26:41.465Z,1.13
2023-04-25T09:27:53.346Z,1.52
2023-04-25T09:29:08.351Z,1.63
2023-04-25T09:30:10.279Z,2.58
2023-04-25T09:31:12.618Z,1.08
2023-04-25T09:32:22.107Z,0.70
2023-04-25T09:33:30.069Z,2.38
2023-04-25T09:34:40.299Z,1.38
2023-04-25T09:35:43.975Z,3.53
2023-04-25T09:36:47.410Z,1.45
2023-04-25T09:37:49.072Z,1.30
2023-04-25T09:38:50.783Z,2.75
2023-04-25T09:39:55.552Z,1.60
2023-04-25T09:41:02.106Z,1.20
2023-04-25T09:42:04.725Z,2.83
2023-04-25T09:43:10.849Z,4.68
2023-04-25T09:44:14.364Z,2.15
2023-04-25T09:45:16.181Z,0.75
2023-04-25T09:46:21.531Z,0.70
2023-04-25T09:47:25.392Z,1.90
2023-04-25T09:48:28.855Z,12.00
2023-04-25T09:49:30.409Z,1.10
2023-04-25T09:50:31.980Z,1.40
2023-04-25T09:51:36.744Z,1.13
2023-04-25T09:52:38.305Z,1.85
2023-04-25T09:53:44.934Z,2.10
2023-04-25T09:54:47.708Z,1.38
2023-04-25T09:55:49.479Z,2.38
2023-04-25T09:58:26.068Z,3.72
2023-04-25T09:59:29.470Z,1.00
2023-04-25T10:00:31.966Z,1.52
2023-04-25T10:01:34.085Z,1.42
2023-04-25T10:02:36.933Z,1.10
2023-04-25T10:03:46.307Z,3.50
2023-04-25T10:04:53.975Z,2.72
2023-04-25T10:05:57.493Z,0.80
2023-04-25T10:07:00.557Z,1.70
2023-04-25T10:08:05.412Z,2.50
2023-04-25T10:09:08.908Z,4.68
2023-04-25T10:10:13.817Z,4.70
2023-04-25T10:11:16.941Z,0.82
2023-04-25T10:12:19.602Z,0.80
2023-04-25T10:13:21.853Z,2.97
2023-04-25T10:14:24.924Z,0.63
2023-04-25T10:15:26.997Z,1.77
2023-04-25T10:16:29.802Z,1.00
2023-04-25T10:17:32.682Z,1.00
2023-04-25T10:18:34.404Z,1.43
2023-04-25T10:19:36.298Z,1.77
2023-04-25T10:20:38.349Z,2.83
2023-04-25T10:21:51.120Z,0.90
2023-04-25T10:22:57.352Z,1.27
2023-04-25T10:23:59.270Z,1.30
2023-04-25T10:25:04.806Z,8.33
2023-04-25T10:26:08.554Z,1.47
2023-04-25T10:27:10.737Z,2.07
2023-04-25T10:28:12.346Z,0.63
2023-04-25T10:29:22.290Z,0.70
2023-04-25T10:30:23.910Z,1.13
2023-04-25T10:31:26.010Z,3.60
2023-04-25T10:32:28.287Z,0.87
2023-04-25T10:33:36.052Z,0.87
2023-04-25T10:34:48.264Z,0.67
2023-04-25T10:35:50.305Z,0.60
2023-04-25T10:36:53.927Z,0.70
2023-04-25T10:37:59.523Z,1.23
2023-04-25T10:39:10.008Z,1.02
2023-04-25T10:40:12.350Z,1.33
2023-04-25T10:41:14.882Z,1.77
2023-04-25T10:42:16.505Z,1.48
2023-04-25T10:43:40.943Z,3.15
2023-04-25T10:45:03.856Z,3.45
2023-04-25T10:46:19.815Z,1.77
2023-04-25T10:47:36.809Z,2.22
2023-04-25T10:48:38.427Z,1.00
2023-04-25T10:49:43.769Z,0.70
2023-04-25T10:50:45.380Z,0.98
2023-04-25T10:51:55.388Z,0.77
2023-04-25T10:53:15.435Z,1.70
2023-04-25T10:54:19.018Z,0.50
2023-04-25T10:55:21.195Z,1.27
2023-04-25T10:56:26.022Z,0.90
2023-04-25T10:57:31.608Z,0.82
2023-04-25T10:58:33.414Z,0.50
2023-04-25T10:59:35.031Z,0.70
2023-04-25T11:00:53.161Z,0.65
2023-04-25T11:01:58.579Z,0.90
2023-04-25T11:03:01.142Z,1.25
2023-04-25T11:04:03.496Z,0.88
2023-04-25T11:05:05.861Z,0.80
2023-04-25T11:06:20.184Z,1.73
2023-04-25T11:07:34.914Z,1.00
2023-04-25T11:08:50.167Z,0.82
2023-04-25T11:09:52.368Z,0.68
2023-04-25T11:10:53.935Z,0.73
2023-04-25T11:11:56.558Z,1.33
2023-04-25T11:12:59.295Z,0.55
2023-04-25T11:14:01.234Z,1.10
2023-04-25T11:15:05.528Z,0.95
2023-04-25T11:16:13.330Z,2.60
2023-04-25T11:17:19.586Z,1.90
2023-04-25T11:18:21.667Z,0.50
2023-04-25T11:19:24.424Z,2.05
2023-04-25T11:20:29.225Z,0.88
2023-04-25T11:21:33.153Z,2.28
2023-04-25T11:22:34.777Z,2.38
2023-04-25T11:23:37.540Z,1.35
2023-04-25T11:24:39.205Z,1.02
2023-04-25T11:25:40.818Z,1.35
2023-04-25T11:26:43.602Z,0.90
2023-04-25T11:27:56.986Z,1.52
2023-04-25T11:29:03.884Z,1.23
2023-04-25T11:30:13.492Z,1.25
2023-04-25T11:31:15.600Z,0.98
2023-04-25T11:32:20.597Z,1.92
2023-04-25T11:33:28.279Z,1.05
2023-04-25T11:34:34.188Z,2.05
2023-04-25T11:35:36.119Z,0.52
2023-04-25T11:36:39.108Z,1.63
2023-04-25T11:37:41.215Z,0.88
2023-04-25T11:38:43.000Z,0.50
2023-04-25T11:39:47.112Z,0.40
2023-04-25T11:40:53.109Z,1.17
2023-04-25T11:41:55.606Z,1.00
2023-04-25T11:42:57.179Z,0.70
2023-04-25T11:43:58.929Z,0.98
2023-04-25T11:45:01.296Z,0.75
2023-04-25T11:46:08.465Z,0.88
2023-04-25T11:47:10.151Z,1.15
2023-04-25T11:48:11.867Z,1.00
2023-04-25T11:49:19.249Z,0.70
2023-04-25T11:50:21.121Z,1.98
2023-04-25T11:51:22.741Z,0.60
2023-04-25T11:52:24.308Z,0.77
2023-04-25T11:53:25.958Z,0.82
2023-04-25T11:54:27.475Z,0.80
2023-04-25T11:55:31.390Z,0.70
2023-04-25T11:56:33.625Z,0.60
2023-04-25T11:57:35.410Z,1.15
2023-04-25T11:59:04.499Z,0.98
2023-04-25T12:00:19.124Z,1.25
2023-04-25T12:01:44.747Z,1.10
2023-04-25T12:02:59.092Z,0.90
2023-04-25T12:04:18.653Z,0.98
2023-04-25T12:05:35.929Z,0.80
2023-04-25T12:06:41.981Z,1.20
2023-04-25T12:07:43.830Z,0.77
2023-04-25T12:09:05.245Z,0.60
2023-04-25T12:10:12.465Z,1.08
2023-04-25T12:11:23.074Z,0.55
2023-04-25T12:12:33.163Z,0.40
2023-04-25T12:13:34.684Z,0.53
2023-04-25T12:14:37.018Z,0.60
2023-04-25T12:15:42.079Z,1.63
2023-04-25T12:16:48.056Z,1.90
2023-04-25T12:17:51.788Z,1.00
2023-04-25T12:18:54.341Z,0.57
2023-04-25T12:19:56.018Z,5.67
2023-04-25T12:20:57.659Z,1.73
2023-04-25T12:21:59.623Z,1.90
2023-04-25T12:23:01.317Z,2.93
2023-04-25T12:24:16.611Z,2.10
2023-04-25T12:25:44.431Z,3.07
2023-04-25T12:26:53.509Z,1.33
2023-04-25T12:27:55.111Z,1.37
2023-04-25T12:28:56.709Z,0.50
2023-04-25T12:29:58.711Z,2.20
2023-04-25T12:31:01.948Z,1.53
2023-04-25T12:32:03.728Z,1.07
2023-04-25T12:33:05.319Z,1.17
2023-04-25T12:34:08.122Z,1.40
2023-04-25T12:35:09.801Z,1.07
2023-04-25T12:36:12.796Z,1.97
2023-04-25T12:37:14.547Z,2.30
2023-04-25T12:38:31.423Z,0.73
2023-04-25T12:39:33.209Z,1.13
2023-04-25T12:40:34.768Z,1.43
2023-04-25T12:41:36.414Z,1.07
2023-04-25T12:42:38.347Z,1.00
2023-04-25T12:43:40.142Z,1.00
2023-04-25T12:44:42.268Z,1.20
2023-04-25T12:45:44.214Z,1.23
2023-04-25T12:46:46.214Z,1.10
2023-04-25T12:47:47.799Z,1.57
2023-04-25T12:48:49.818Z,3.03
2023-04-25T12:49:51.558Z,0.90
2023-04-25T12:50:53.275Z,1.60
2023-04-25T12:51:54.907Z,1.03
2023-04-25T12:52:56.432Z,1.53
2023-04-25T12:53:57.971Z,2.80
2023-04-25T12:54:59.472Z,0.83
2023-04-25T12:56:01.285Z,2.93
2023-04-25T12:57:04.074Z,2.63
2023-04-25T12:58:05.758Z,1.97
2023-04-25T12:59:07.368Z,0.73
2023-04-25T13:00:11.163Z,1.17
2023-04-25T13:01:13.610Z,0.90
2023-04-25T13:02:15.361Z,1.33
2023-04-25T13:03:17.642Z,1.13
2023-04-25T13:04:22.064Z,1.13
2023-04-25T13:05:24.030Z,2.23
2023-04-25T13:06:25.805Z,3.03
2023-04-25T13:07:27.671Z,1.20
2023-04-25T13:08:29.276Z,1.77
2023-04-25T13:09:31.102Z,1.13
2023-04-25T13:10:34.803Z,1.93
2023-04-25T13:11:36.610Z,1.23
2023-04-25T13:12:38.227Z,1.17
2023-04-25T13:13:41.140Z,1.00
2023-04-25T13:14:42.693Z,0.97
2023-04-25T13:15:44.468Z,1.00
2023-04-25T13:16:46.927Z,1.10
2023-04-25T13:17:48.569Z,4.17
2023-04-25T13:18:50.148Z,1.90
2023-04-25T13:19:51.943Z,1.20
2023-04-25T13:20:54.274Z,1.20
2023-04-25T13:21:56.062Z,1.93
2023-04-25T13:23:00.228Z,1.90
2023-04-25T13:24:02.487Z,2.00
2023-04-25T13:25:06.521Z,5.13
2023-04-25T13:26:08.075Z,1.87
2023-04-25T13:27:09.987Z,3.20
2023-04-25T13:28:11.908Z,1.20
2023-04-25T13:29:13.468Z,3.63
2023-04-25T13:30:15.121Z,2.50
2023-04-25T13:31:16.679Z,3.83
2023-04-25T13:32:18.255Z,1.87
2023-04-25T13:33:21.194Z,3.10
2023-04-25T13:34:22.756Z,2.23
2023-04-25T13:35:24.279Z,1.30
2023-04-25T13:36:25.984Z,2.57
2023-04-25T13:37:27.613Z,2.90
2023-04-25T13:38:29.207Z,2.80
2023-04-25T13:39:30.787Z,3.23
2023-04-25T13:40:33.097Z,1.97
2023-04-25T13:41:34.944Z,3.87
2023-04-25T13:42:37.140Z,2.00
2023-04-25T13:43:38.725Z,1.27
2023-04-25T13:44:40.865Z,2.40
2023-04-25T13:45:42.602Z,1.73
2023-04-25T13:46:47.211Z,2.03
2023-04-25T13:47:49.471Z,2.23
2023-04-25T13:48:52.684Z,1.43
2023-04-25T13:49:57.532Z,1.93
2023-04-25T13:50:59.065Z,0.80
2023-04-25T13:52:00.745Z,1.97
2023-04-25T13:53:02.325Z,2.07
2023-04-25T13:54:04.072Z,1.90
2023-04-25T13:55:07.950Z,1.10
2023-04-25T13:56:09.656Z,1.03
2023-04-25T13:57:12.360Z,1.10
2023-04-25T13:58:13.913Z,2.03